CheckWX is a tool to help pilots better visualize weather data.  It is not intended as a substitute for an official pre-flight weather briefing.

06:57:11 UTC

KHOT TAF
Memorial Field Airport
Hot Springs, Arkansas, USA
KHOT 210529Z 2106/2206 15005KT P6SM SCT020 BKN060 TEMPO 2112/2115 4SM BR SCT010 BKN030 FM211500 17008KT P6SM SCT030 BKN050 FM211800 17010G18KT P6SM SCT050 BKN120 FM220000 14005KT P6SM SCT120 BKN250

Sep-21@
06:00 UTC

Sep-21 @ 06:00 UTC

Sep-21@
15:00 UTC

Sep-21 @ 15:00 UTC

KHOT 210529Z 2106/2206 15005KT P6SM SCT020 BKN060
Wind
  • 150° at 5 KTS
Cloud Levels
  • Scattered at 2,000' AGL
  • Broken at 6,000' AGL

Sep-21@
12:00 UTC

Sep-21 @ 12:00 UTC

Sep-21@
15:00 UTC

Sep-21 @ 15:00 UTC

TEMPO 2112/2115 4SM BR SCT010 BKN030

Temporary

Temporary Changes expected for less than half the time period

Conditions
Mist
Cloud Levels
  • Scattered at 1,000' AGL
  • Broken at 3,000' AGL

Sep-21@
15:00 UTC

Sep-21 @ 15:00 UTC

Sep-21@
18:00 UTC

Sep-21 @ 18:00 UTC

FM211500 17008KT P6SM SCT030 BKN050

From

From Standard forecast or significant change

Wind
  • 170° at 8 KTS
Cloud Levels
  • Scattered at 3,000' AGL
  • Broken at 5,000' AGL

Sep-21@
18:00 UTC

Sep-21 @ 18:00 UTC

Sep-22@
00:00 UTC

Sep-22 @ 00:00 UTC

FM211800 17010G18KT P6SM SCT050 BKN120

From

From Standard forecast or significant change

Wind
  • 170° at 10 KTS
  • {Gusting to 18 KTS
Cloud Levels
  • Scattered at 5,000' AGL
  • Broken at 12,000' AGL

Sep-22@
00:00 UTC

Sep-22 @ 00:00 UTC

Sep-22@
06:00 UTC

Sep-22 @ 06:00 UTC

FM220000 14005KT P6SM SCT120 BKN250

From

From Standard forecast or significant change

Wind
  • 140° at 5 KTS
Cloud Levels
  • Scattered at 12,000' AGL
  • Broken at 25,000' AGL